sensor_id;sensor_type;location;lat;lon;timestamp;P1;durP1;ratioP1;P2;durP2;ratioP2
80175;SDS011;75462;42.122;24.736;2024-01-30T00:01:35;0.80;;;0.80;;
80175;SDS011;75462;42.122;24.736;2024-01-30T00:04:01;0.70;;;0.70;;
80175;SDS011;75462;42.122;24.736;2024-01-30T00:06:27;0.70;;;0.70;;
80175;SDS011;75462;42.122;24.736;2024-01-30T00:08:53;0.70;;;0.70;;
80175;SDS011;75462;42.122;24.736;2024-01-30T00:11:19;0.80;;;0.80;;
80175;SDS011;75462;42.122;24.736;2024-01-30T00:13:44;0.70;;;0.70;;
80175;SDS011;75462;42.122;24.736;2024-01-30T00:16:20;0.70;;;0.70;;
80175;SDS011;75462;42.122;24.736;2024-01-30T00:18:47;0.70;;;0.70;;
80175;SDS011;75462;42.122;24.736;2024-01-30T00:21:13;0.70;;;0.70;;
80175;SDS011;75462;42.122;24.736;2024-01-30T00:23:38;0.70;;;0.70;;
80175;SDS011;75462;42.122;24.736;2024-01-30T00:26:04;0.70;;;0.70;;
80175;SDS011;75462;42.122;24.736;2024-01-30T00:28:30;0.68;;;0.68;;
80175;SDS011;75462;42.122;24.736;2024-01-30T00:30:56;0.70;;;0.70;;
80175;SDS011;75462;42.122;24.736;2024-01-30T00:33:22;0.70;;;0.70;;
80175;SDS011;75462;42.122;24.736;2024-01-30T00:35:47;0.70;;;0.70;;
80175;SDS011;75462;42.122;24.736;2024-01-30T00:38:13;0.70;;;0.70;;
80175;SDS011;75462;42.122;24.736;2024-01-30T00:40:38;0.60;;;0.60;;
80175;SDS011;75462;42.122;24.736;2024-01-30T00:43:04;0.70;;;0.70;;
80175;SDS011;75462;42.122;24.736;2024-01-30T00:45:30;0.70;;;0.70;;
80175;SDS011;75462;42.122;24.736;2024-01-30T00:47:56;0.63;;;0.63;;
80175;SDS011;75462;42.122;24.736;2024-01-30T00:50:22;0.70;;;0.70;;
80175;SDS011;75462;42.122;24.736;2024-01-30T00:52:47;0.70;;;0.70;;
80175;SDS011;75462;42.122;24.736;2024-01-30T00:55:13;0.70;;;0.70;;
80175;SDS011;75462;42.122;24.736;2024-01-30T00:57:39;0.63;;;0.63;;
80175;SDS011;75462;42.122;24.736;2024-01-30T01:00:05;0.70;;;0.70;;
80175;SDS011;75462;42.122;24.736;2024-01-30T01:02:34;0.70;;;0.70;;
80175;SDS011;75462;42.122;24.736;2024-01-30T01:05:00;0.68;;;0.68;;
80175;SDS011;75462;42.122;24.736;2024-01-30T01:07:26;0.70;;;0.70;;
80175;SDS011;75462;42.122;24.736;2024-01-30T01:09:51;0.70;;;0.70;;
80175;SDS011;75462;42.122;24.736;2024-01-30T01:12:17;0.70;;;0.70;;
80175;SDS011;75462;42.122;24.736;2024-01-30T01:14:43;0.70;;;0.70;;
80175;SDS011;75462;42.122;24.736;2024-01-30T01:17:09;0.70;;;0.70;;
80175;SDS011;75462;42.122;24.736;2024-01-30T01:19:34;0.70;;;0.70;;
80175;SDS011;75462;42.122;24.736;2024-01-30T01:22:00;0.70;;;0.70;;
80175;SDS011;75462;42.122;24.736;2024-01-30T01:24:25;0.70;;;0.70;;
80175;SDS011;75462;42.122;24.736;2024-01-30T01:26:51;0.60;;;0.60;;
80175;SDS011;75462;42.122;24.736;2024-01-30T01:29:17;0.70;;;0.70;;
80175;SDS011;75462;42.122;24.736;2024-01-30T01:31:42;0.70;;;0.70;;
80175;SDS011;75462;42.122;24.736;2024-01-30T01:34:11;0.70;;;0.70;;
80175;SDS011;75462;42.122;24.736;2024-01-30T01:36:38;0.70;;;0.70;;
80175;SDS011;75462;42.122;24.736;2024-01-30T01:39:04;0.70;;;0.70;;
80175;SDS011;75462;42.122;24.736;2024-01-30T01:41:30;0.70;;;0.70;;
80175;SDS011;75462;42.122;24.736;2024-01-30T01:43:59;0.70;;;0.70;;
80175;SDS011;75462;42.122;24.736;2024-01-30T01:46:26;0.80;;;0.80;;
80175;SDS011;75462;42.122;24.736;2024-01-30T01:48:53;0.70;;;0.70;;
80175;SDS011;75462;42.122;24.736;2024-01-30T01:51:19;0.70;;;0.70;;
80175;SDS011;75462;42.122;24.736;2024-01-30T01:53:46;0.80;;;0.80;;
80175;SDS011;75462;42.122;24.736;2024-01-30T01:56:12;0.70;;;0.70;;
80175;SDS011;75462;42.122;24.736;2024-01-30T01:58:38;0.80;;;0.80;;
80175;SDS011;75462;42.122;24.736;2024-01-30T02:01:04;0.70;;;0.70;;
80175;SDS011;75462;42.122;24.736;2024-01-30T02:03:30;0.60;;;0.60;;
80175;SDS011;75462;42.122;24.736;2024-01-30T02:05:56;0.70;;;0.70;;
80175;SDS011;75462;42.122;24.736;2024-01-30T02:08:22;0.80;;;0.80;;
80175;SDS011;75462;42.122;24.736;2024-01-30T02:10:49;0.80;;;0.80;;
80175;SDS011;75462;42.122;24.736;2024-01-30T02:13:15;0.70;;;0.70;;
80175;SDS011;75462;42.122;24.736;2024-01-30T02:15:40;0.70;;;0.70;;
80175;SDS011;75462;42.122;24.736;2024-01-30T02:18:06;0.80;;;0.80;;
80175;SDS011;75462;42.122;24.736;2024-01-30T02:20:32;0.70;;;0.70;;
80175;SDS011;75462;42.122;24.736;2024-01-30T02:23:00;0.77;;;0.77;;
80175;SDS011;75462;42.122;24.736;2024-01-30T02:25:30;0.73;;;0.73;;
80175;SDS011;75462;42.122;24.736;2024-01-30T02:27:58;0.70;;;0.70;;
80175;SDS011;75462;42.122;24.736;2024-01-30T02:30:23;0.80;;;0.80;;
80175;SDS011;75462;42.122;24.736;2024-01-30T02:32:49;0.70;;;0.70;;
80175;SDS011;75462;42.122;24.736;2024-01-30T02:35:15;0.73;;;0.73;;
80175;SDS011;75462;42.122;24.736;2024-01-30T02:37:40;0.77;;;0.77;;
80175;SDS011;75462;42.122;24.736;2024-01-30T02:40:06;0.70;;;0.70;;
80175;SDS011;75462;42.122;24.736;2024-01-30T02:42:32;0.80;;;0.80;;
80175;SDS011;75462;42.122;24.736;2024-01-30T02:44:58;0.80;;;0.80;;
80175;SDS011;75462;42.122;24.736;2024-01-30T02:47:23;0.65;;;0.65;;
80175;SDS011;75462;42.122;24.736;2024-01-30T02:49:50;0.70;;;0.70;;
80175;SDS011;75462;42.122;24.736;2024-01-30T02:52:15;0.77;;;0.77;;
80175;SDS011;75462;42.122;24.736;2024-01-30T02:54:41;0.80;;;0.80;;
80175;SDS011;75462;42.122;24.736;2024-01-30T02:57:07;0.80;;;0.80;;
80175;SDS011;75462;42.122;24.736;2024-01-30T02:59:33;0.80;;;0.80;;
80175;SDS011;75462;42.122;24.736;2024-01-30T03:02:00;0.70;;;0.70;;
80175;SDS011;75462;42.122;24.736;2024-01-30T03:04:26;0.70;;;0.70;;
80175;SDS011;75462;42.122;24.736;2024-01-30T03:06:52;0.70;;;0.70;;
80175;SDS011;75462;42.122;24.736;2024-01-30T03:09:18;0.70;;;0.70;;
80175;SDS011;75462;42.122;24.736;2024-01-30T03:11:43;0.80;;;0.80;;
80175;SDS011;75462;42.122;24.736;2024-01-30T03:14:09;0.70;;;0.70;;
80175;SDS011;75462;42.122;24.736;2024-01-30T03:16:38;0.80;;;0.80;;
80175;SDS011;75462;42.122;24.736;2024-01-30T03:19:05;0.80;;;0.80;;
80175;SDS011;75462;42.122;24.736;2024-01-30T03:21:32;0.80;;;0.80;;
80175;SDS011;75462;42.122;24.736;2024-01-30T03:23:58;0.70;;;0.70;;
80175;SDS011;75462;42.122;24.736;2024-01-30T03:26:24;0.73;;;0.73;;
80175;SDS011;75462;42.122;24.736;2024-01-30T03:28:50;0.70;;;0.70;;
80175;SDS011;75462;42.122;24.736;2024-01-30T03:31:16;0.80;;;0.80;;
80175;SDS011;75462;42.122;24.736;2024-01-30T03:33:42;0.77;;;0.77;;
80175;SDS011;75462;42.122;24.736;2024-01-30T03:36:08;0.80;;;0.80;;
80175;SDS011;75462;42.122;24.736;2024-01-30T03:38:34;0.80;;;0.80;;
80175;SDS011;75462;42.122;24.736;2024-01-30T03:41:00;0.70;;;0.70;;
80175;SDS011;75462;42.122;24.736;2024-01-30T03:43:26;0.70;;;0.70;;
80175;SDS011;75462;42.122;24.736;2024-01-30T03:45:51;0.60;;;0.60;;
80175;SDS011;75462;42.122;24.736;2024-01-30T03:48:18;0.80;;;0.80;;
80175;SDS011;75462;42.122;24.736;2024-01-30T03:50:44;0.70;;;0.70;;
80175;SDS011;75462;42.122;24.736;2024-01-30T03:53:09;0.80;;;0.80;;
80175;SDS011;75462;42.122;24.736;2024-01-30T03:55:35;0.80;;;0.80;;
80175;SDS011;75462;42.122;24.736;2024-01-30T03:58:01;0.80;;;0.80;;
80175;SDS011;75462;42.122;24.736;2024-01-30T04:00:27;0.70;;;0.70;;
80175;SDS011;75462;42.122;24.736;2024-01-30T04:02:53;0.80;;;0.80;;
80175;SDS011;75462;42.122;24.736;2024-01-30T04:05:18;0.80;;;0.80;;
80175;SDS011;75462;42.122;24.736;2024-01-30T04:07:44;0.80;;;0.80;;
80175;SDS011;75462;42.122;24.736;2024-01-30T04:10:10;0.70;;;0.70;;
80175;SDS011;75462;42.122;24.736;2024-01-30T04:12:35;0.60;;;0.60;;
80175;SDS011;75462;42.122;24.736;2024-01-30T04:15:01;0.80;;;0.80;;
80175;SDS011;75462;42.122;24.736;2024-01-30T04:17:28;0.80;;;0.80;;
80175;SDS011;75462;42.122;24.736;2024-01-30T04:19:54;0.80;;;0.80;;
80175;SDS011;75462;42.122;24.736;2024-01-30T04:22:20;0.75;;;0.75;;
80175;SDS011;75462;42.122;24.736;2024-01-30T04:24:46;0.80;;;0.80;;
80175;SDS011;75462;42.122;24.736;2024-01-30T04:27:11;0.70;;;0.70;;
80175;SDS011;75462;42.122;24.736;2024-01-30T04:29:37;0.70;;;0.70;;
80175;SDS011;75462;42.122;24.736;2024-01-30T04:32:03;0.70;;;0.70;;
80175;SDS011;75462;42.122;24.736;2024-01-30T04:34:29;0.70;;;0.70;;
80175;SDS011;75462;42.122;24.736;2024-01-30T04:36:55;0.70;;;0.70;;
80175;SDS011;75462;42.122;24.736;2024-01-30T04:39:21;0.80;;;0.80;;
80175;SDS011;75462;42.122;24.736;2024-01-30T04:41:47;0.70;;;0.70;;
80175;SDS011;75462;42.122;24.736;2024-01-30T04:44:14;0.70;;;0.70;;
80175;SDS011;75462;42.122;24.736;2024-01-30T04:46:40;0.90;;;0.90;;
80175;SDS011;75462;42.122;24.736;2024-01-30T04:49:05;0.80;;;0.80;;
80175;SDS011;75462;42.122;24.736;2024-01-30T04:51:32;0.80;;;0.80;;
80175;SDS011;75462;42.122;24.736;2024-01-30T04:53:58;0.80;;;0.80;;
80175;SDS011;75462;42.122;24.736;2024-01-30T04:56:24;0.80;;;0.80;;
80175;SDS011;75462;42.122;24.736;2024-01-30T04:58:50;0.70;;;0.70;;
80175;SDS011;75462;42.122;24.736;2024-01-30T05:01:15;0.80;;;0.80;;
80175;SDS011;75462;42.122;24.736;2024-01-30T05:03:41;0.70;;;0.70;;
80175;SDS011;75462;42.122;24.736;2024-01-30T05:06:07;0.80;;;0.80;;
80175;SDS011;75462;42.122;24.736;2024-01-30T05:08:33;0.70;;;0.70;;
80175;SDS011;75462;42.122;24.736;2024-01-30T05:11:01;0.70;;;0.70;;
80175;SDS011;75462;42.122;24.736;2024-01-30T05:13:29;0.70;;;0.70;;
80175;SDS011;75462;42.122;24.736;2024-01-30T05:15:55;0.70;;;0.70;;
80175;SDS011;75462;42.122;24.736;2024-01-30T05:18:21;0.75;;;0.75;;
80175;SDS011;75462;42.122;24.736;2024-01-30T05:20:47;0.70;;;0.70;;
80175;SDS011;75462;42.122;24.736;2024-01-30T05:23:12;0.70;;;0.70;;
80175;SDS011;75462;42.122;24.736;2024-01-30T05:25:38;0.60;;;0.60;;
80175;SDS011;75462;42.122;24.736;2024-01-30T05:28:04;0.77;;;0.77;;
80175;SDS011;75462;42.122;24.736;2024-01-30T05:30:30;0.80;;;0.80;;
80175;SDS011;75462;42.122;24.736;2024-01-30T05:32:56;0.80;;;0.80;;
80175;SDS011;75462;42.122;24.736;2024-01-30T05:35:22;0.80;;;0.80;;
80175;SDS011;75462;42.122;24.736;2024-01-30T05:37:48;0.70;;;0.70;;
80175;SDS011;75462;42.122;24.736;2024-01-30T05:40:15;0.80;;;0.80;;
80175;SDS011;75462;42.122;24.736;2024-01-30T05:42:41;0.70;;;0.70;;
80175;SDS011;75462;42.122;24.736;2024-01-30T05:45:06;0.80;;;0.80;;
80175;SDS011;75462;42.122;24.736;2024-01-30T05:47:33;0.80;;;0.80;;
80175;SDS011;75462;42.122;24.736;2024-01-30T05:49:59;0.70;;;0.70;;
80175;SDS011;75462;42.122;24.736;2024-01-30T05:52:25;0.70;;;0.70;;
80175;SDS011;75462;42.122;24.736;2024-01-30T05:54:50;0.70;;;0.70;;
80175;SDS011;75462;42.122;24.736;2024-01-30T05:57:16;0.80;;;0.80;;
80175;SDS011;75462;42.122;24.736;2024-01-30T05:59:42;0.80;;;0.80;;
80175;SDS011;75462;42.122;24.736;2024-01-30T06:02:13;0.70;;;0.70;;
80175;SDS011;75462;42.122;24.736;2024-01-30T06:04:39;0.70;;;0.70;;
80175;SDS011;75462;42.122;24.736;2024-01-30T06:07:04;0.80;;;0.80;;
80175;SDS011;75462;42.122;24.736;2024-01-30T06:09:31;0.70;;;0.70;;
80175;SDS011;75462;42.122;24.736;2024-01-30T06:11:57;0.70;;;0.70;;
80175;SDS011;75462;42.122;24.736;2024-01-30T06:14:23;0.70;;;0.70;;
80175;SDS011;75462;42.122;24.736;2024-01-30T06:16:49;0.70;;;0.70;;
80175;SDS011;75462;42.122;24.736;2024-01-30T06:19:14;0.70;;;0.70;;
80175;SDS011;75462;42.122;24.736;2024-01-30T06:21:40;0.60;;;0.60;;
80175;SDS011;75462;42.122;24.736;2024-01-30T06:24:06;0.70;;;0.70;;
80175;SDS011;75462;42.122;24.736;2024-01-30T06:26:32;0.80;;;0.80;;
80175;SDS011;75462;42.122;24.736;2024-01-30T06:28:57;0.70;;;0.70;;
80175;SDS011;75462;42.122;24.736;2024-01-30T06:31:23;0.65;;;0.65;;
80175;SDS011;75462;42.122;24.736;2024-01-30T06:33:49;0.80;;;0.80;;
80175;SDS011;75462;42.122;24.736;2024-01-30T06:36:15;0.80;;;0.80;;
80175;SDS011;75462;42.122;24.736;2024-01-30T06:38:41;0.80;;;0.80;;
80175;SDS011;75462;42.122;24.736;2024-01-30T06:41:07;0.70;;;0.70;;
80175;SDS011;75462;42.122;24.736;2024-01-30T06:43:32;0.80;;;0.80;;
80175;SDS011;75462;42.122;24.736;2024-01-30T06:45:58;0.75;;;0.75;;
80175;SDS011;75462;42.122;24.736;2024-01-30T06:48:24;0.80;;;0.80;;
80175;SDS011;75462;42.122;24.736;2024-01-30T06:50:52;0.70;;;0.70;;
80175;SDS011;75462;42.122;24.736;2024-01-30T06:53:19;0.80;;;0.80;;
80175;SDS011;75462;42.122;24.736;2024-01-30T06:55:44;0.80;;;0.80;;
80175;SDS011;75462;42.122;24.736;2024-01-30T06:58:10;0.70;;;0.70;;
80175;SDS011;75462;42.122;24.736;2024-01-30T07:00:36;0.80;;;0.80;;
80175;SDS011;75462;42.122;24.736;2024-01-30T07:03:02;0.80;;;0.80;;
80175;SDS011;75462;42.122;24.736;2024-01-30T07:05:28;0.80;;;0.80;;
80175;SDS011;75462;42.122;24.736;2024-01-30T07:07:53;0.70;;;0.70;;
80175;SDS011;75462;42.122;24.736;2024-01-30T07:10:19;0.80;;;0.80;;
80175;SDS011;75462;42.122;24.736;2024-01-30T07:12:45;0.80;;;0.80;;
80175;SDS011;75462;42.122;24.736;2024-01-30T07:15:10;0.60;;;0.60;;
80175;SDS011;75462;42.122;24.736;2024-01-30T07:17:36;0.70;;;0.70;;
80175;SDS011;75462;42.122;24.736;2024-01-30T07:20:02;0.80;;;0.80;;
80175;SDS011;75462;42.122;24.736;2024-01-30T07:22:32;0.80;;;0.80;;
80175;SDS011;75462;42.122;24.736;2024-01-30T07:24:58;0.80;;;0.80;;
80175;SDS011;75462;42.122;24.736;2024-01-30T07:27:24;0.63;;;0.63;;
80175;SDS011;75462;42.122;24.736;2024-01-30T07:29:50;0.80;;;0.80;;
80175;SDS011;75462;42.122;24.736;2024-01-30T07:32:15;0.75;;;0.75;;
80175;SDS011;75462;42.122;24.736;2024-01-30T07:34:41;0.80;;;0.80;;
80175;SDS011;75462;42.122;24.736;2024-01-30T07:37:07;0.80;;;0.80;;
80175;SDS011;75462;42.122;24.736;2024-01-30T07:39:33;0.80;;;0.80;;
80175;SDS011;75462;42.122;24.736;2024-01-30T07:41:59;0.70;;;0.70;;
80175;SDS011;75462;42.122;24.736;2024-01-30T07:44:25;0.80;;;0.80;;
80175;SDS011;75462;42.122;24.736;2024-01-30T07:46:51;0.70;;;0.70;;
80175;SDS011;75462;42.122;24.736;2024-01-30T07:49:16;0.75;;;0.75;;
80175;SDS011;75462;42.122;24.736;2024-01-30T07:51:42;0.70;;;0.70;;
80175;SDS011;75462;42.122;24.736;2024-01-30T07:54:13;0.70;;;0.70;;
80175;SDS011;75462;42.122;24.736;2024-01-30T07:56:38;0.80;;;0.80;;
80175;SDS011;75462;42.122;24.736;2024-01-30T07:59:04;0.70;;;0.70;;
80175;SDS011;75462;42.122;24.736;2024-01-30T08:01:30;0.70;;;0.70;;
80175;SDS011;75462;42.122;24.736;2024-01-30T08:03:55;0.60;;;0.60;;
80175;SDS011;75462;42.122;24.736;2024-01-30T08:06:21;0.63;;;0.63;;
80175;SDS011;75462;42.122;24.736;2024-01-30T08:08:47;0.60;;;0.60;;
80175;SDS011;75462;42.122;24.736;2024-01-30T08:11:12;0.70;;;0.70;;
80175;SDS011;75462;42.122;24.736;2024-01-30T08:13:38;0.70;;;0.70;;
80175;SDS011;75462;42.122;24.736;2024-01-30T08:16:04;0.70;;;0.70;;
80175;SDS011;75462;42.122;24.736;2024-01-30T08:18:30;0.70;;;0.70;;
80175;SDS011;75462;42.122;24.736;2024-01-30T08:20:56;0.70;;;0.70;;
80175;SDS011;75462;42.122;24.736;2024-01-30T08:23:22;0.70;;;0.70;;
80175;SDS011;75462;42.122;24.736;2024-01-30T08:25:48;0.70;;;0.70;;
80175;SDS011;75462;42.122;24.736;2024-01-30T08:28:13;0.70;;;0.70;;
80175;SDS011;75462;42.122;24.736;2024-01-30T08:30:39;0.60;;;0.60;;
80175;SDS011;75462;42.122;24.736;2024-01-30T08:33:05;0.70;;;0.70;;
80175;SDS011;75462;42.122;24.736;2024-01-30T08:35:30;0.63;;;0.63;;
80175;SDS011;75462;42.122;24.736;2024-01-30T08:37:58;0.70;;;0.70;;
80175;SDS011;75462;42.122;24.736;2024-01-30T08:40:24;0.60;;;0.60;;
80175;SDS011;75462;42.122;24.736;2024-01-30T08:42:50;0.70;;;0.70;;
80175;SDS011;75462;42.122;24.736;2024-01-30T08:45:15;0.60;;;0.60;;
80175;SDS011;75462;42.122;24.736;2024-01-30T08:47:41;0.63;;;0.63;;
80175;SDS011;75462;42.122;24.736;2024-01-30T08:50:07;0.60;;;0.60;;
80175;SDS011;75462;42.122;24.736;2024-01-30T08:52:33;0.60;;;0.60;;
80175;SDS011;75462;42.122;24.736;2024-01-30T08:54:59;0.70;;;0.70;;
80175;SDS011;75462;42.122;24.736;2024-01-30T08:57:25;0.60;;;0.60;;
80175;SDS011;75462;42.122;24.736;2024-01-30T08:59:54;0.70;;;0.70;;
80175;SDS011;75462;42.122;24.736;2024-01-30T09:02:20;0.60;;;0.60;;
80175;SDS011;75462;42.122;24.736;2024-01-30T09:04:45;0.60;;;0.60;;
80175;SDS011;75462;42.122;24.736;2024-01-30T09:07:11;0.65;;;0.65;;
80175;SDS011;75462;42.122;24.736;2024-01-30T09:09:38;0.60;;;0.60;;
80175;SDS011;75462;42.122;24.736;2024-01-30T09:12:07;0.60;;;0.60;;
80175;SDS011;75462;42.122;24.736;2024-01-30T09:14:37;0.70;;;0.70;;
80175;SDS011;75462;42.122;24.736;2024-01-30T09:17:04;0.60;;;0.60;;
80175;SDS011;75462;42.122;24.736;2024-01-30T09:19:30;0.70;;;0.70;;
80175;SDS011;75462;42.122;24.736;2024-01-30T09:21:55;0.60;;;0.60;;
80175;SDS011;75462;42.122;24.736;2024-01-30T09:24:21;0.65;;;0.65;;
80175;SDS011;75462;42.122;24.736;2024-01-30T09:26:47;0.70;;;0.70;;
80175;SDS011;75462;42.122;24.736;2024-01-30T09:29:13;0.60;;;0.60;;
80175;SDS011;75462;42.122;24.736;2024-01-30T09:31:38;0.70;;;0.70;;
80175;SDS011;75462;42.122;24.736;2024-01-30T09:34:04;0.70;;;0.70;;
80175;SDS011;75462;42.122;24.736;2024-01-30T09:36:30;0.70;;;0.70;;
80175;SDS011;75462;42.122;24.736;2024-01-30T09:38:56;0.60;;;0.60;;
80175;SDS011;75462;42.122;24.736;2024-01-30T09:41:23;0.70;;;0.70;;
80175;SDS011;75462;42.122;24.736;2024-01-30T09:43:50;0.70;;;0.70;;
80175;SDS011;75462;42.122;24.736;2024-01-30T09:46:16;0.70;;;0.70;;
80175;SDS011;75462;42.122;24.736;2024-01-30T09:48:48;0.70;;;0.70;;
80175;SDS011;75462;42.122;24.736;2024-01-30T09:51:14;0.70;;;0.70;;
80175;SDS011;75462;42.122;24.736;2024-01-30T09:53:42;0.70;;;0.70;;
80175;SDS011;75462;42.122;24.736;2024-01-30T09:56:09;0.70;;;0.70;;
80175;SDS011;75462;42.122;24.736;2024-01-30T09:58:36;0.70;;;0.70;;
80175;SDS011;75462;42.122;24.736;2024-01-30T10:01:02;0.70;;;0.70;;
80175;SDS011;75462;42.122;24.736;2024-01-30T10:03:27;0.70;;;0.70;;
80175;SDS011;75462;42.122;24.736;2024-01-30T10:05:53;0.70;;;0.70;;
80175;SDS011;75462;42.122;24.736;2024-01-30T10:08:21;0.70;;;0.70;;
80175;SDS011;75462;42.122;24.736;2024-01-30T10:10:46;0.70;;;0.70;;
80175;SDS011;75462;42.122;24.736;2024-01-30T10:13:13;0.60;;;0.60;;
80175;SDS011;75462;42.122;24.736;2024-01-30T10:15:39;0.60;;;0.60;;
80175;SDS011;75462;42.122;24.736;2024-01-30T10:18:05;0.60;;;0.60;;
80175;SDS011;75462;42.122;24.736;2024-01-30T10:20:32;0.63;;;0.63;;
80175;SDS011;75462;42.122;24.736;2024-01-30T10:22:58;0.50;;;0.50;;
80175;SDS011;75462;42.122;24.736;2024-01-30T10:25:24;0.60;;;0.60;;
80175;SDS011;75462;42.122;24.736;2024-01-30T10:27:54;0.52;;;0.52;;
80175;SDS011;75462;42.122;24.736;2024-01-30T10:30:23;0.60;;;0.60;;
80175;SDS011;75462;42.122;24.736;2024-01-30T10:32:49;0.50;;;0.50;;
80175;SDS011;75462;42.122;24.736;2024-01-30T10:35:16;0.60;;;0.60;;
80175;SDS011;75462;42.122;24.736;2024-01-30T10:37:46;0.60;;;0.60;;
80175;SDS011;75462;42.122;24.736;2024-01-30T10:40:13;0.50;;;0.50;;
80175;SDS011;75462;42.122;24.736;2024-01-30T10:42:43;0.50;;;0.50;;
80175;SDS011;75462;42.122;24.736;2024-01-30T10:45:10;0.60;;;0.60;;
80175;SDS011;75462;42.122;24.736;2024-01-30T10:47:39;0.60;;;0.60;;
80175;SDS011;75462;42.122;24.736;2024-01-30T10:50:08;0.60;;;0.60;;
80175;SDS011;75462;42.122;24.736;2024-01-30T10:52:35;0.50;;;0.50;;
80175;SDS011;75462;42.122;24.736;2024-01-30T10:55:01;0.50;;;0.50;;
80175;SDS011;75462;42.122;24.736;2024-01-30T10:57:30;0.57;;;0.57;;
80175;SDS011;75462;42.122;24.736;2024-01-30T10:59:56;0.50;;;0.50;;
80175;SDS011;75462;42.122;24.736;2024-01-30T11:02:24;0.50;;;0.50;;
80175;SDS011;75462;42.122;24.736;2024-01-30T11:04:54;0.50;;;0.50;;
80175;SDS011;75462;42.122;24.736;2024-01-30T11:07:28;0.50;;;0.50;;
80175;SDS011;75462;42.122;24.736;2024-01-30T11:12:23;0.50;;;0.50;;
80175;SDS011;75462;42.122;24.736;2024-01-30T11:14:50;0.47;;;0.47;;
80175;SDS011;75462;42.122;24.736;2024-01-30T11:17:39;0.50;;;0.50;;
80175;SDS011;75462;42.122;24.736;2024-01-30T11:20:21;0.40;;;0.40;;
80175;SDS011;75462;42.122;24.736;2024-01-30T11:22:52;0.40;;;0.40;;
80175;SDS011;75462;42.122;24.736;2024-01-30T11:25:19;0.40;;;0.40;;
80175;SDS011;75462;42.122;24.736;2024-01-30T11:27:46;0.40;;;0.40;;
80175;SDS011;75462;42.122;24.736;2024-01-30T11:33:00;0.35;;;0.35;;
80175;SDS011;75462;42.122;24.736;2024-01-30T11:35:26;0.30;;;0.30;;
80175;SDS011;75462;42.122;24.736;2024-01-30T11:37:52;0.30;;;0.30;;
80175;SDS011;75462;42.122;24.736;2024-01-30T11:40:19;0.20;;;0.20;;
80175;SDS011;75462;42.122;24.736;2024-01-30T11:42:44;0.20;;;0.20;;
80175;SDS011;75462;42.122;24.736;2024-01-30T11:45:12;0.20;;;0.20;;
80175;SDS011;75462;42.122;24.736;2024-01-30T11:47:37;0.20;;;0.20;;
80175;SDS011;75462;42.122;24.736;2024-01-30T11:50:04;0.20;;;0.20;;
80175;SDS011;75462;42.122;24.736;2024-01-30T11:52:32;0.10;;;0.10;;
80175;SDS011;75462;42.122;24.736;2024-01-30T11:54:58;0.10;;;0.10;;
80175;SDS011;75462;42.122;24.736;2024-01-30T11:57:26;0.10;;;0.10;;
80175;SDS011;75462;42.122;24.736;2024-01-30T11:59:52;0.20;;;0.20;;
80175;SDS011;75462;42.122;24.736;2024-01-30T12:02:18;0.10;;;0.10;;
80175;SDS011;75462;42.122;24.736;2024-01-30T12:04:43;0.10;;;0.10;;
80175;SDS011;75462;42.122;24.736;2024-01-30T12:07:09;0.10;;;0.10;;
80175;SDS011;75462;42.122;24.736;2024-01-30T12:09:36;0.20;;;0.20;;
80175;SDS011;75462;42.122;24.736;2024-01-30T12:12:01;0.10;;;0.10;;
80175;SDS011;75462;42.122;24.736;2024-01-30T12:14:27;0.10;;;0.10;;
80175;SDS011;75462;42.122;24.736;2024-01-30T12:16:53;0.10;;;0.10;;
80175;SDS011;75462;42.122;24.736;2024-01-30T12:19:23;0.10;;;0.10;;
80175;SDS011;75462;42.122;24.736;2024-01-30T12:21:53;0.10;;;0.10;;
80175;SDS011;75462;42.122;24.736;2024-01-30T12:24:21;0.10;;;0.10;;
80175;SDS011;75462;42.122;24.736;2024-01-30T12:26:47;0.10;;;0.10;;
80175;SDS011;75462;42.122;24.736;2024-01-30T12:29:14;0.10;;;0.10;;
80175;SDS011;75462;42.122;24.736;2024-01-30T12:31:41;0.10;;;0.10;;
80175;SDS011;75462;42.122;24.736;2024-01-30T12:34:07;0.10;;;0.10;;
80175;SDS011;75462;42.122;24.736;2024-01-30T12:36:33;0.10;;;0.10;;
80175;SDS011;75462;42.122;24.736;2024-01-30T12:38:59;0.10;;;0.10;;
80175;SDS011;75462;42.122;24.736;2024-01-30T12:41:26;0.10;;;0.10;;
80175;SDS011;75462;42.122;24.736;2024-01-30T12:43:54;0.20;;;0.20;;
80175;SDS011;75462;42.122;24.736;2024-01-30T12:46:19;0.20;;;0.20;;
80175;SDS011;75462;42.122;24.736;2024-01-30T12:48:45;0.10;;;0.10;;
80175;SDS011;75462;42.122;24.736;2024-01-30T12:51:11;0.20;;;0.20;;
80175;SDS011;75462;42.122;24.736;2024-01-30T12:53:36;0.20;;;0.20;;
80175;SDS011;75462;42.122;24.736;2024-01-30T12:56:02;0.20;;;0.20;;
80175;SDS011;75462;42.122;24.736;2024-01-30T12:58:28;0.30;;;0.30;;
80175;SDS011;75462;42.122;24.736;2024-01-30T13:00:54;0.20;;;0.20;;
80175;SDS011;75462;42.122;24.736;2024-01-30T13:03:20;0.30;;;0.30;;
80175;SDS011;75462;42.122;24.736;2024-01-30T13:05:45;0.30;;;0.30;;
80175;SDS011;75462;42.122;24.736;2024-01-30T13:08:11;0.30;;;0.30;;
80175;SDS011;75462;42.122;24.736;2024-01-30T13:10:37;0.30;;;0.30;;
80175;SDS011;75462;42.122;24.736;2024-01-30T13:13:02;0.30;;;0.30;;
80175;SDS011;75462;42.122;24.736;2024-01-30T13:15:28;0.40;;;0.40;;
80175;SDS011;75462;42.122;24.736;2024-01-30T13:17:54;0.40;;;0.40;;
80175;SDS011;75462;42.122;24.736;2024-01-30T13:20:19;0.40;;;0.40;;
80175;SDS011;75462;42.122;24.736;2024-01-30T13:22:48;0.40;;;0.40;;
80175;SDS011;75462;42.122;24.736;2024-01-30T13:25:15;0.40;;;0.40;;
80175;SDS011;75462;42.122;24.736;2024-01-30T13:27:41;0.40;;;0.40;;
80175;SDS011;75462;42.122;24.736;2024-01-30T13:30:06;0.40;;;0.40;;
80175;SDS011;75462;42.122;24.736;2024-01-30T13:32:35;0.47;;;0.47;;
80175;SDS011;75462;42.122;24.736;2024-01-30T13:35:02;0.50;;;0.50;;
80175;SDS011;75462;42.122;24.736;2024-01-30T13:37:28;0.50;;;0.50;;
80175;SDS011;75462;42.122;24.736;2024-01-30T13:39:54;0.50;;;0.50;;
80175;SDS011;75462;42.122;24.736;2024-01-30T13:42:21;0.50;;;0.50;;
80175;SDS011;75462;42.122;24.736;2024-01-30T13:44:47;0.50;;;0.50;;
80175;SDS011;75462;42.122;24.736;2024-01-30T13:47:12;0.57;;;0.57;;
80175;SDS011;75462;42.122;24.736;2024-01-30T13:49:38;0.50;;;0.50;;
80175;SDS011;75462;42.122;24.736;2024-01-30T13:52:04;0.50;;;0.50;;
80175;SDS011;75462;42.122;24.736;2024-01-30T13:54:30;0.60;;;0.60;;
80175;SDS011;75462;42.122;24.736;2024-01-30T13:56:55;0.60;;;0.60;;
80175;SDS011;75462;42.122;24.736;2024-01-30T13:59:22;0.50;;;0.50;;
80175;SDS011;75462;42.122;24.736;2024-01-30T14:01:50;0.47;;;0.47;;
80175;SDS011;75462;42.122;24.736;2024-01-30T14:04:16;0.50;;;0.50;;
80175;SDS011;75462;42.122;24.736;2024-01-30T14:06:42;0.50;;;0.50;;
80175;SDS011;75462;42.122;24.736;2024-01-30T14:09:08;0.50;;;0.50;;
80175;SDS011;75462;42.122;24.736;2024-01-30T14:11:35;0.50;;;0.50;;
80175;SDS011;75462;42.122;24.736;2024-01-30T14:14:01;0.40;;;0.40;;
80175;SDS011;75462;42.122;24.736;2024-01-30T14:16:26;0.40;;;0.40;;
80175;SDS011;75462;42.122;24.736;2024-01-30T14:18:53;0.40;;;0.40;;
80175;SDS011;75462;42.122;24.736;2024-01-30T14:21:19;0.47;;;0.47;;
80175;SDS011;75462;42.122;24.736;2024-01-30T14:23:45;0.40;;;0.40;;
80175;SDS011;75462;42.122;24.736;2024-01-30T14:26:12;0.50;;;0.50;;
80175;SDS011;75462;42.122;24.736;2024-01-30T14:28:37;0.50;;;0.50;;
80175;SDS011;75462;42.122;24.736;2024-01-30T14:31:03;0.50;;;0.50;;
80175;SDS011;75462;42.122;24.736;2024-01-30T14:33:29;0.50;;;0.50;;